createdAt,value
2023-05-17T00:03:10.813Z,95945.16
2023-05-17T00:08:12.597Z,95948.28
2023-05-17T00:13:14.106Z,95952.19
2023-05-17T00:18:15.823Z,95947.88
2023-05-17T00:23:17.377Z,95952.16
2023-05-17T00:28:18.907Z,95943.97
2023-05-17T00:33:20.512Z,95946.69
2023-05-17T00:38:22.129Z,95948.59
2023-05-17T00:43:23.729Z,95950.13
2023-05-17T00:48:26.395Z,95953.59
2023-05-17T00:53:29.553Z,95965.66
2023-05-17T00:58:31.190Z,95967.66
2023-05-17T01:03:33.003Z,95964.16
2023-05-17T01:08:34.759Z,95976.66
2023-05-17T01:13:48.796Z,95980.16
2023-05-17T01:19:02.610Z,95982.47
2023-05-17T01:24:28.843Z,95992.19
2023-05-17T01:29:33.055Z,95984.41
2023-05-17T01:34:35.077Z,95997.25
2023-05-17T01:39:37.724Z,96006.63
2023-05-17T01:45:07.656Z,96012.06
2023-05-17T01:50:12.716Z,96018.63
2023-05-17T01:56:02.558Z,96013.56
2023-05-17T02:01:05.889Z,96020.97
2023-05-17T02:06:07.629Z,96016.66
2023-05-17T02:11:09.367Z,96019.78
2023-05-17T02:16:11.125Z,96012.72
2023-05-17T02:21:13.383Z,96011.56
2023-05-17T02:26:14.991Z,96016.22
2023-05-17T02:31:16.544Z,96013.44
2023-05-17T02:36:18.091Z,96022.41
2023-05-17T02:41:20.206Z,96019.16
2023-05-17T02:46:22.152Z,96012.91
2023-05-17T02:51:23.721Z,96028.09
2023-05-17T02:56:25.709Z,96021.81
2023-05-17T03:01:28.046Z,96029.97
2023-05-17T03:06:31.321Z,96028.78
2023-05-17T03:11:33.579Z,96028.78
2023-05-17T03:16:36.830Z,96034.97
2023-05-17T03:21:40.132Z,96045.09
2023-05-17T03:26:41.864Z,96044.69
2023-05-17T03:31:45.376Z,96045.78
2023-05-17T03:36:48.979Z,96051.59
2023-05-17T03:41:51.048Z,96054.66
2023-05-17T03:46:53.101Z,96055.31
2023-05-17T03:51:56.315Z,96065.28
2023-05-17T03:56:58.106Z,96071.16
2023-05-17T04:01:59.881Z,96085.59
2023-05-17T04:07:02.591Z,96084.38
2023-05-17T04:12:04.528Z,96088.28
2023-05-17T04:17:06.158Z,96094.41
2023-05-17T04:22:07.852Z,96105.78
2023-05-17T04:27:09.776Z,96114.81
2023-05-17T04:32:11.347Z,96107.53
2023-05-17T04:37:13.692Z,96121.97
2023-05-17T04:42:15.690Z,96121.59
2023-05-17T04:47:23.310Z,96129.00
2023-05-17T04:52:24.949Z,96133.63
2023-05-17T04:57:27.140Z,96146.41
2023-05-17T05:02:38.524Z,96148.03
2023-05-17T05:07:41.165Z,96154.97
2023-05-17T05:12:44.900Z,96173.66
2023-05-17T05:17:48.387Z,96170.94
2023-05-17T05:22:50.121Z,96176.47
2023-05-17T05:27:53.259Z,96176.13
2023-05-17T05:32:55.028Z,96176.16
2023-05-17T05:37:57.810Z,96181.28
2023-05-17T05:42:59.842Z,96186.78
2023-05-17T05:48:01.775Z,96196.56
2023-05-17T05:53:17.277Z,96197.81
2023-05-17T05:58:23.503Z,96206.78
2023-05-17T06:03:26.342Z,96209.91
2023-05-17T06:08:27.855Z,96206.78
2023-05-17T06:13:29.392Z,96215.41
2023-05-17T06:18:30.967Z,96214.97
2023-05-17T06:23:32.538Z,96211.63
2023-05-17T06:28:34.078Z,96217.97
2023-05-17T06:33:35.795Z,96218.50
2023-05-17T06:38:37.459Z,96211.53
2023-05-17T06:43:39.062Z,96221.81
2023-05-17T06:48:40.751Z,96216.81
2023-05-17T06:53:42.412Z,96220.69
2023-05-17T06:58:43.944Z,96225.44
2023-05-17T07:03:45.705Z,96232.53
2023-05-17T07:08:47.291Z,96248.63
2023-05-17T07:13:50.665Z,96245.19
2023-05-17T07:18:53.148Z,96236.38
2023-05-17T07:23:54.726Z,96247.84
2023-05-17T07:28:56.240Z,96253.78
2023-05-17T07:33:57.982Z,96260.81
2023-05-17T07:38:59.685Z,96258.16
2023-05-17T07:44:01.370Z,96259.75
2023-05-17T07:49:03.098Z,96260.19
2023-05-17T07:54:04.823Z,96262.91
2023-05-17T07:59:06.865Z,96258.22
2023-05-17T08:04:08.434Z,96259.84
2023-05-17T08:09:11.050Z,96259.16
2023-05-17T08:14:16.767Z,96261.16
2023-05-17T08:19:19.377Z,96262.00
2023-05-17T08:24:21.121Z,96268.63
2023-05-17T08:29:22.652Z,96277.25
2023-05-17T08:34:24.499Z,96267.44
2023-05-17T08:39:26.160Z,96264.75
2023-05-17T08:44:28.576Z,96262.44
2023-05-17T08:49:33.458Z,96272.22
2023-05-17T08:54:35.717Z,96282.41
2023-05-17T08:59:39.055Z,96280.06
2023-05-17T09:04:41.084Z,96283.22
2023-05-17T09:09:42.814Z,96282.00
2023-05-17T09:14:44.541Z,96287.47
2023-05-17T09:19:47.901Z,96298.84
2023-05-17T09:24:49.984Z,96300.38
2023-05-17T09:29:54.524Z,96301.94
2023-05-17T09:34:59.328Z,96306.28
2023-05-17T09:40:01.181Z,96303.13
2023-05-17T09:45:03.078Z,96305.50
2023-05-17T09:50:05.474Z,96309.00
2023-05-17T09:55:07.356Z,96311.38
2023-05-17T10:00:12.002Z,96322.34
2023-05-17T10:05:15.768Z,96316.09
2023-05-17T10:10:18.149Z,96317.25
2023-05-17T10:15:20.894Z,96316.88
2023-05-17T10:20:22.545Z,96324.31
2023-05-17T10:25:24.339Z,96313.34
2023-05-17T10:30:28.555Z,96317.25
2023-05-17T10:35:30.656Z,96307.06
2023-05-17T10:40:32.906Z,96301.56
2023-05-17T10:45:37.016Z,96294.50
2023-05-17T10:50:45.039Z,96297.22
2023-05-17T10:55:55.768Z,96282.69
2023-05-17T11:00:57.299Z,96287.78
2023-05-17T11:06:22.010Z,96289.31
2023-05-17T11:11:25.190Z,96290.50
2023-05-17T11:16:34.295Z,96283.41
2023-05-17T11:21:36.090Z,96286.16
2023-05-17T11:26:38.011Z,96289.69
2023-05-17T11:31:44.338Z,96286.50
2023-05-17T11:36:51.747Z,96281.75
2023-05-17T11:41:57.304Z,96294.66
2023-05-17T11:47:07.073Z,96291.06
2023-05-17T11:52:09.001Z,96294.13
2023-05-17T11:57:12.768Z,96300.72
2023-05-17T12:02:31.266Z,96304.22
2023-05-17T12:07:34.454Z,96290.09
2023-05-17T12:12:36.029Z,96286.59
2023-05-17T12:17:44.484Z,96289.00
2023-05-17T12:22:56.598Z,96294.53
2023-05-17T12:28:22.551Z,96283.44
2023-05-17T12:33:26.028Z,96301.06
2023-05-17T12:38:28.477Z,96293.63
2023-05-17T12:43:32.505Z,96302.63
2023-05-17T12:48:36.209Z,96323.41
2023-05-17T12:53:42.466Z,96313.25
2023-05-17T12:58:44.613Z,96313.63
2023-05-17T13:03:51.343Z,96311.66
2023-05-17T13:09:00.123Z,96315.97
2023-05-17T13:14:01.734Z,96312.06
2023-05-17T13:19:12.139Z,96315.56
2023-05-17T13:24:14.106Z,96311.31
2023-05-17T13:29:16.357Z,96312.16
2023-05-17T13:34:21.076Z,96316.84
2023-05-17T13:39:22.996Z,96328.22
2023-05-17T13:44:24.940Z,96327.13
2023-05-17T13:49:28.205Z,96322.41
2023-05-17T13:54:29.724Z,96324.72
2023-05-17T13:59:31.312Z,96321.50
2023-05-17T14:04:33.286Z,96313.94
2023-05-17T14:09:36.660Z,96317.75
2023-05-17T14:14:38.216Z,96317.31
2023-05-17T14:19:39.871Z,96314.47
2023-05-17T14:24:41.570Z,96313.69
2023-05-17T14:29:43.130Z,96314.91
2023-05-17T14:34:44.916Z,96320.84
2023-05-17T14:39:55.191Z,96325.56
2023-05-17T14:45:08.994Z,96322.03
2023-05-17T14:50:10.987Z,96332.19
2023-05-17T14:55:12.510Z,96333.28
2023-05-17T15:00:14.323Z,96330.50
2023-05-17T15:05:16.322Z,96346.16
2023-05-17T15:10:18.068Z,96343.44
2023-05-17T15:15:22.144Z,96344.81
2023-05-17T15:20:23.830Z,96334.69
2023-05-17T15:25:25.323Z,96329.19
2023-05-17T15:30:29.702Z,96323.22
2023-05-17T15:35:31.455Z,96332.97
2023-05-17T15:40:34.222Z,96330.59
2023-05-17T15:45:35.782Z,96329.38
2023-05-17T15:50:37.360Z,96336.78
2023-05-17T15:55:38.876Z,96335.59
2023-05-17T16:00:40.400Z,96336.44
2023-05-17T16:05:42.612Z,96328.19
2023-05-17T16:10:44.555Z,96335.72
2023-05-17T16:15:46.121Z,96344.06
2023-05-17T16:20:47.653Z,96346.81
2023-05-17T16:25:49.155Z,96346.91
2023-05-17T16:30:51.663Z,96346.91
2023-05-17T16:35:53.256Z,96358.72
2023-05-17T16:40:55.025Z,96350.03
2023-05-17T16:45:56.550Z,96349.59
2023-05-17T16:50:59.412Z,96366.47
2023-05-17T16:56:01.420Z,96361.75
2023-05-17T17:01:03.226Z,96366.88
2023-05-17T17:06:04.913Z,96359.41
2023-05-17T17:11:06.415Z,96359.00
2023-05-17T17:16:07.972Z,96364.47
2023-05-17T17:21:10.234Z,96366.03
2023-05-17T17:26:11.970Z,96369.91
2023-05-17T17:31:13.788Z,96373.78
2023-05-17T17:36:15.713Z,96371.38
2023-05-17T17:41:17.299Z,96377.22
2023-05-17T17:46:18.964Z,96387.81
2023-05-17T17:51:20.606Z,96389.75
2023-05-17T17:56:23.992Z,96397.22
2023-05-17T18:01:30.967Z,96399.19
2023-05-17T18:06:33.988Z,96400.00
2023-05-17T18:11:35.648Z,96399.25
2023-05-17T18:16:37.756Z,96398.91
2023-05-17T18:21:39.454Z,96396.19
2023-05-17T18:26:41.032Z,96408.06
2023-05-17T18:31:42.696Z,96404.19
2023-05-17T18:36:44.333Z,96414.44
2023-05-17T18:41:45.945Z,96404.28
2023-05-17T18:46:48.701Z,96414.16
2023-05-17T18:51:50.405Z,96407.53
2023-05-17T18:56:52.038Z,96408.72
2023-05-17T19:01:54.086Z,96417.03
2023-05-17T19:06:55.693Z,96417.84
2023-05-17T19:11:57.424Z,96415.53
2023-05-17T19:16:59.690Z,96418.69
2023-05-17T19:22:02.214Z,96432.84
2023-05-17T19:27:04.750Z,96438.72
2023-05-17T19:32:06.501Z,96437.19
2023-05-17T19:37:08.290Z,96445.81
2023-05-17T19:42:10.109Z,96450.94
2023-05-17T19:47:11.668Z,96446.59
2023-05-17T19:52:13.341Z,96444.66
2023-05-17T19:57:14.893Z,96438.34
2023-05-17T20:02:16.672Z,96437.97
2023-05-17T20:07:18.559Z,96440.69
2023-05-17T20:12:20.424Z,96441.47
2023-05-17T20:17:22.050Z,96436.75
2023-05-17T20:22:23.781Z,96442.63
2023-05-17T20:27:26.293Z,96446.94
2023-05-17T20:32:28.112Z,96458.28
2023-05-17T20:37:29.742Z,96462.97
2023-05-17T20:42:32.596Z,96461.00
2023-05-17T20:47:34.237Z,96458.63
2023-05-17T20:52:39.579Z,96462.13
2023-05-17T20:57:42.012Z,96461.31
2023-05-17T21:02:43.767Z,96456.59
2023-05-17T21:07:46.694Z,96459.66
2023-05-17T21:12:48.446Z,96451.41
2023-05-17T21:17:50.186Z,96449.44
2023-05-17T21:22:51.821Z,96456.84
2023-05-17T21:27:53.349Z,96450.94
2023-05-17T21:32:55.099Z,96449.28
2023-05-17T21:37:56.757Z,96451.63
2023-05-17T21:42:58.354Z,96454.34
2023-05-17T21:48:00.125Z,96454.72
2023-05-17T21:53:01.765Z,96453.47
2023-05-17T21:58:03.377Z,96460.91
2023-05-17T22:03:05.061Z,96469.47
2023-05-17T22:08:06.761Z,96459.31
2023-05-17T22:13:12.068Z,96461.25
2023-05-17T22:18:13.914Z,96462.81
2023-05-17T22:23:16.148Z,96460.81
2023-05-17T22:28:17.736Z,96461.56
2023-05-17T22:33:22.125Z,96457.22
2023-05-17T22:38:23.763Z,96465.03
2023-05-17T22:43:25.991Z,96470.47
2023-05-17T22:48:30.295Z,96461.84
2023-05-17T22:53:31.934Z,96467.25
2023-05-17T22:58:33.607Z,96466.81
2023-05-17T23:03:35.174Z,96457.00
2023-05-17T23:08:36.745Z,96456.16
2023-05-17T23:13:38.408Z,96460.81
2023-05-17T23:18:40.767Z,96455.28
2023-05-17T23:23:42.312Z,96451.31
2023-05-17T23:28:44.075Z,96459.88
2023-05-17T23:33:45.646Z,96448.84
2023-05-17T23:38:47.623Z,96446.47
2023-05-17T23:43:49.183Z,96456.53
2023-05-17T23:48:51.410Z,96445.94
2023-05-17T23:53:52.959Z,96433.78
2023-05-17T23:58:54.596Z,96439.16
